sensor_id;sensor_type;location;lat;lon;timestamp;P1;durP1;ratioP1;P2;durP2;ratioP2
18653;SDS011;9456;47.824;16.228;2023-06-14T00:01:54;9.13;;;5.40;;
18653;SDS011;9456;47.824;16.228;2023-06-14T00:04:23;6.83;;;5.90;;
18653;SDS011;9456;47.824;16.228;2023-06-14T00:06:52;9.80;;;5.37;;
18653;SDS011;9456;47.824;16.228;2023-06-14T00:09:21;6.37;;;5.10;;
18653;SDS011;9456;47.824;16.228;2023-06-14T00:11:50;10.10;;;6.10;;
18653;SDS011;9456;47.824;16.228;2023-06-14T00:14:19;7.10;;;5.63;;
18653;SDS011;9456;47.824;16.228;2023-06-14T00:16:48;8.80;;;5.13;;
18653;SDS011;9456;47.824;16.228;2023-06-14T00:19:17;11.17;;;5.60;;
18653;SDS011;9456;47.824;16.228;2023-06-14T00:21:46;9.67;;;5.33;;
18653;SDS011;9456;47.824;16.228;2023-06-14T00:24:15;5.60;;;5.10;;
18653;SDS011;9456;47.824;16.228;2023-06-14T00:26:43;6.50;;;5.17;;
18653;SDS011;9456;47.824;16.228;2023-06-14T00:29:12;5.57;;;4.80;;
18653;SDS011;9456;47.824;16.228;2023-06-14T00:31:41;7.07;;;5.30;;
18653;SDS011;9456;47.824;16.228;2023-06-14T00:34:10;6.63;;;5.10;;
18653;SDS011;9456;47.824;16.228;2023-06-14T00:36:39;5.47;;;4.97;;
18653;SDS011;9456;47.824;16.228;2023-06-14T00:39:08;8.33;;;5.43;;
18653;SDS011;9456;47.824;16.228;2023-06-14T00:41:37;11.40;;;6.07;;
18653;SDS011;9456;47.824;16.228;2023-06-14T00:44:06;7.63;;;6.93;;
18653;SDS011;9456;47.824;16.228;2023-06-14T00:46:35;8.10;;;6.23;;
18653;SDS011;9456;47.824;16.228;2023-06-14T00:49:04;6.60;;;5.90;;
18653;SDS011;9456;47.824;16.228;2023-06-14T00:51:32;8.63;;;6.33;;
18653;SDS011;9456;47.824;16.228;2023-06-14T00:54:01;10.87;;;6.27;;
18653;SDS011;9456;47.824;16.228;2023-06-14T00:56:30;7.53;;;6.03;;
18653;SDS011;9456;47.824;16.228;2023-06-14T00:58:59;8.53;;;6.63;;
18653;SDS011;9456;47.824;16.228;2023-06-14T01:01:28;8.00;;;6.33;;
18653;SDS011;9456;47.824;16.228;2023-06-14T01:03:58;6.63;;;5.80;;
18653;SDS011;9456;47.824;16.228;2023-06-14T01:06:30;6.77;;;6.17;;
18653;SDS011;9456;47.824;16.228;2023-06-14T01:09:01;9.63;;;6.50;;
18653;SDS011;9456;47.824;16.228;2023-06-14T01:11:31;9.87;;;5.70;;
18653;SDS011;9456;47.824;16.228;2023-06-14T01:13:59;8.50;;;5.80;;
18653;SDS011;9456;47.824;16.228;2023-06-14T01:16:28;7.33;;;5.73;;
18653;SDS011;9456;47.824;16.228;2023-06-14T01:18:57;6.70;;;6.00;;
18653;SDS011;9456;47.824;16.228;2023-06-14T01:21:26;9.63;;;6.37;;
18653;SDS011;9456;47.824;16.228;2023-06-14T01:23:55;7.20;;;5.77;;
18653;SDS011;9456;47.824;16.228;2023-06-14T01:26:24;7.07;;;5.60;;
18653;SDS011;9456;47.824;16.228;2023-06-14T01:28:53;6.67;;;5.70;;
18653;SDS011;9456;47.824;16.228;2023-06-14T01:31:22;6.67;;;5.10;;
18653;SDS011;9456;47.824;16.228;2023-06-14T01:33:51;7.50;;;5.33;;
18653;SDS011;9456;47.824;16.228;2023-06-14T01:36:20;7.50;;;5.87;;
18653;SDS011;9456;47.824;16.228;2023-06-14T01:38:49;6.67;;;5.73;;
18653;SDS011;9456;47.824;16.228;2023-06-14T01:41:18;6.97;;;6.07;;
18653;SDS011;9456;47.824;16.228;2023-06-14T01:43:47;7.43;;;5.17;;
18653;SDS011;9456;47.824;16.228;2023-06-14T01:46:16;7.87;;;5.10;;
18653;SDS011;9456;47.824;16.228;2023-06-14T01:48:45;7.17;;;5.37;;
18653;SDS011;9456;47.824;16.228;2023-06-14T01:51:14;5.83;;;5.17;;
18653;SDS011;9456;47.824;16.228;2023-06-14T01:53:43;6.33;;;4.90;;
18653;SDS011;9456;47.824;16.228;2023-06-14T01:56:12;8.30;;;6.23;;
18653;SDS011;9456;47.824;16.228;2023-06-14T01:58:41;8.23;;;5.47;;
18653;SDS011;9456;47.824;16.228;2023-06-14T02:01:10;10.17;;;5.63;;
18653;SDS011;9456;47.824;16.228;2023-06-14T02:03:38;9.63;;;6.30;;
18653;SDS011;9456;47.824;16.228;2023-06-14T02:06:10;8.43;;;6.60;;
18653;SDS011;9456;47.824;16.228;2023-06-14T02:08:39;6.67;;;6.07;;
18653;SDS011;9456;47.824;16.228;2023-06-14T02:11:08;9.13;;;6.30;;
18653;SDS011;9456;47.824;16.228;2023-06-14T02:13:36;11.00;;;6.47;;
18653;SDS011;9456;47.824;16.228;2023-06-14T02:16:05;7.97;;;6.40;;
18653;SDS011;9456;47.824;16.228;2023-06-14T02:18:34;6.63;;;6.00;;
18653;SDS011;9456;47.824;16.228;2023-06-14T02:21:03;6.40;;;5.80;;
18653;SDS011;9456;47.824;16.228;2023-06-14T02:23:32;9.43;;;6.50;;
18653;SDS011;9456;47.824;16.228;2023-06-14T02:26:01;7.00;;;6.30;;
18653;SDS011;9456;47.824;16.228;2023-06-14T02:28:30;9.23;;;6.80;;
18653;SDS011;9456;47.824;16.228;2023-06-14T02:30:59;8.90;;;6.40;;
18653;SDS011;9456;47.824;16.228;2023-06-14T02:33:28;7.17;;;6.47;;
18653;SDS011;9456;47.824;16.228;2023-06-14T02:35:57;9.83;;;6.27;;
18653;SDS011;9456;47.824;16.228;2023-06-14T02:38:25;8.30;;;7.07;;
18653;SDS011;9456;47.824;16.228;2023-06-14T02:40:54;8.90;;;8.00;;
18653;SDS011;9456;47.824;16.228;2023-06-14T02:43:23;8.90;;;7.87;;
18653;SDS011;9456;47.824;16.228;2023-06-14T02:45:52;9.63;;;7.63;;
18653;SDS011;9456;47.824;16.228;2023-06-14T02:48:21;7.97;;;7.10;;
18653;SDS011;9456;47.824;16.228;2023-06-14T02:50:50;9.97;;;7.40;;
18653;SDS011;9456;47.824;16.228;2023-06-14T02:53:19;7.70;;;6.87;;
18653;SDS011;9456;47.824;16.228;2023-06-14T02:55:48;8.27;;;7.47;;
18653;SDS011;9456;47.824;16.228;2023-06-14T02:58:17;10.50;;;8.70;;
18653;SDS011;9456;47.824;16.228;2023-06-14T03:00:46;9.00;;;7.97;;
18653;SDS011;9456;47.824;16.228;2023-06-14T03:03:15;11.87;;;8.13;;
18653;SDS011;9456;47.824;16.228;2023-06-14T03:05:44;12.53;;;8.83;;
18653;SDS011;9456;47.824;16.228;2023-06-14T03:08:13;10.37;;;7.97;;
18653;SDS011;9456;47.824;16.228;2023-06-14T03:10:42;10.73;;;7.97;;
18653;SDS011;9456;47.824;16.228;2023-06-14T03:13:11;12.37;;;7.90;;
18653;SDS011;9456;47.824;16.228;2023-06-14T03:15:40;13.07;;;8.77;;
18653;SDS011;9456;47.824;16.228;2023-06-14T03:18:09;11.33;;;9.00;;
18653;SDS011;9456;47.824;16.228;2023-06-14T03:20:38;10.70;;;9.50;;
18653;SDS011;9456;47.824;16.228;2023-06-14T03:23:07;13.33;;;10.73;;
18653;SDS011;9456;47.824;16.228;2023-06-14T03:25:36;11.87;;;10.63;;
18653;SDS011;9456;47.824;16.228;2023-06-14T03:28:05;18.37;;;11.77;;
18653;SDS011;9456;47.824;16.228;2023-06-14T03:30:34;14.43;;;12.37;;
18653;SDS011;9456;47.824;16.228;2023-06-14T03:33:03;21.87;;;14.33;;
18653;SDS011;9456;47.824;16.228;2023-06-14T03:35:32;27.53;;;18.93;;
18653;SDS011;9456;47.824;16.228;2023-06-14T03:38:01;20.97;;;16.73;;
18653;SDS011;9456;47.824;16.228;2023-06-14T03:40:30;27.07;;;18.83;;
18653;SDS011;9456;47.824;16.228;2023-06-14T03:42:58;22.93;;;15.87;;
18653;SDS011;9456;47.824;16.228;2023-06-14T03:45:27;17.53;;;15.30;;
18653;SDS011;9456;47.824;16.228;2023-06-14T03:47:56;15.23;;;13.73;;
18653;SDS011;9456;47.824;16.228;2023-06-14T03:50:25;15.53;;;13.90;;
18653;SDS011;9456;47.824;16.228;2023-06-14T03:52:54;16.90;;;14.90;;
18653;SDS011;9456;47.824;16.228;2023-06-14T03:55:23;18.23;;;16.33;;
18653;SDS011;9456;47.824;16.228;2023-06-14T03:57:52;18.27;;;15.87;;
18653;SDS011;9456;47.824;16.228;2023-06-14T04:00:21;16.70;;;14.67;;
18653;SDS011;9456;47.824;16.228;2023-06-14T04:02:50;18.60;;;16.17;;
18653;SDS011;9456;47.824;16.228;2023-06-14T04:05:19;19.63;;;16.43;;
18653;SDS011;9456;47.824;16.228;2023-06-14T04:07:48;17.77;;;15.97;;
18653;SDS011;9456;47.824;16.228;2023-06-14T04:10:20;27.63;;;19.07;;
18653;SDS011;9456;47.824;16.228;2023-06-14T04:12:49;17.90;;;16.10;;
18653;SDS011;9456;47.824;16.228;2023-06-14T04:15:18;22.37;;;20.10;;
18653;SDS011;9456;47.824;16.228;2023-06-14T04:17:47;22.70;;;20.30;;
18653;SDS011;9456;47.824;16.228;2023-06-14T04:20:16;19.50;;;17.47;;
18653;SDS011;9456;47.824;16.228;2023-06-14T04:22:45;18.33;;;16.43;;
18653;SDS011;9456;47.824;16.228;2023-06-14T04:25:14;22.10;;;17.13;;
18653;SDS011;9456;47.824;16.228;2023-06-14T04:27:43;20.10;;;15.57;;
18653;SDS011;9456;47.824;16.228;2023-06-14T04:30:12;19.67;;;17.23;;
18653;SDS011;9456;47.824;16.228;2023-06-14T04:32:44;22.97;;;20.10;;
18653;SDS011;9456;47.824;16.228;2023-06-14T04:35:13;21.97;;;17.13;;
18653;SDS011;9456;47.824;16.228;2023-06-14T04:37:42;21.13;;;15.60;;
18653;SDS011;9456;47.824;16.228;2023-06-14T04:40:11;18.03;;;16.13;;
18653;SDS011;9456;47.824;16.228;2023-06-14T04:42:40;18.93;;;16.93;;
18653;SDS011;9456;47.824;16.228;2023-06-14T04:45:10;17.83;;;16.03;;
18653;SDS011;9456;47.824;16.228;2023-06-14T04:47:39;19.50;;;17.50;;
18653;SDS011;9456;47.824;16.228;2023-06-14T04:50:08;32.47;;;19.60;;
18653;SDS011;9456;47.824;16.228;2023-06-14T04:52:38;25.43;;;19.77;;
18653;SDS011;9456;47.824;16.228;2023-06-14T04:55:07;26.27;;;19.50;;
18653;SDS011;9456;47.824;16.228;2023-06-14T04:57:37;27.40;;;22.47;;
18653;SDS011;9456;47.824;16.228;2023-06-14T05:00:07;29.17;;;23.87;;
18653;SDS011;9456;47.824;16.228;2023-06-14T05:02:37;31.60;;;27.37;;
18653;SDS011;9456;47.824;16.228;2023-06-14T05:05:06;32.57;;;28.87;;
18653;SDS011;9456;47.824;16.228;2023-06-14T05:07:35;35.37;;;31.00;;
18653;SDS011;9456;47.824;16.228;2023-06-14T05:10:05;32.97;;;27.70;;
18653;SDS011;9456;47.824;16.228;2023-06-14T05:12:36;28.80;;;25.43;;
18653;SDS011;9456;47.824;16.228;2023-06-14T05:15:06;32.37;;;28.50;;
18653;SDS011;9456;47.824;16.228;2023-06-14T05:17:36;24.40;;;21.80;;
18653;SDS011;9456;47.824;16.228;2023-06-14T05:20:06;26.20;;;20.97;;
18653;SDS011;9456;47.824;16.228;2023-06-14T05:22:37;23.57;;;19.80;;
18653;SDS011;9456;47.824;16.228;2023-06-14T05:25:07;22.57;;;18.43;;
18653;SDS011;9456;47.824;16.228;2023-06-14T05:27:36;22.27;;;20.03;;
18653;SDS011;9456;47.824;16.228;2023-06-14T05:33:11;20.90;;;18.37;;
18653;SDS011;9456;47.824;16.228;2023-06-14T05:35:42;18.90;;;17.07;;
18653;SDS011;9456;47.824;16.228;2023-06-14T05:38:11;22.57;;;19.80;;
18653;SDS011;9456;47.824;16.228;2023-06-14T05:40:40;20.10;;;18.27;;
18653;SDS011;9456;47.824;16.228;2023-06-14T05:43:09;22.83;;;17.57;;
18653;SDS011;9456;47.824;16.228;2023-06-14T05:45:38;17.27;;;14.77;;
18653;SDS011;9456;47.824;16.228;2023-06-14T05:48:07;15.27;;;13.77;;
18653;SDS011;9456;47.824;16.228;2023-06-14T05:50:36;16.23;;;13.50;;
18653;SDS011;9456;47.824;16.228;2023-06-14T05:53:05;14.80;;;12.27;;
18653;SDS011;9456;47.824;16.228;2023-06-14T05:55:35;14.87;;;11.80;;
18653;SDS011;9456;47.824;16.228;2023-06-14T05:58:04;12.30;;;11.03;;
18653;SDS011;9456;47.824;16.228;2023-06-14T06:00:33;12.30;;;9.57;;
18653;SDS011;9456;47.824;16.228;2023-06-14T06:03:02;14.67;;;8.60;;
18653;SDS011;9456;47.824;16.228;2023-06-14T06:05:31;10.70;;;9.03;;
18653;SDS011;9456;47.824;16.228;2023-06-14T06:08:00;10.10;;;7.90;;
18653;SDS011;9456;47.824;16.228;2023-06-14T06:10:29;7.80;;;6.83;;
18653;SDS011;9456;47.824;16.228;2023-06-14T06:12:58;8.37;;;7.50;;
18653;SDS011;9456;47.824;16.228;2023-06-14T06:15:27;8.23;;;7.43;;
18653;SDS011;9456;47.824;16.228;2023-06-14T06:17:56;10.63;;;7.37;;
18653;SDS011;9456;47.824;16.228;2023-06-14T06:20:25;13.03;;;7.70;;
18653;SDS011;9456;47.824;16.228;2023-06-14T06:22:54;14.33;;;7.60;;
18653;SDS011;9456;47.824;16.228;2023-06-14T06:25:23;10.10;;;7.03;;
18653;SDS011;9456;47.824;16.228;2023-06-14T06:27:53;12.57;;;8.53;;
18653;SDS011;9456;47.824;16.228;2023-06-14T06:30:22;14.70;;;6.43;;
18653;SDS011;9456;47.824;16.228;2023-06-14T06:32:51;24.63;;;8.47;;
18653;SDS011;9456;47.824;16.228;2023-06-14T06:35:20;20.37;;;7.90;;
18653;SDS011;9456;47.824;16.228;2023-06-14T06:37:49;25.90;;;8.50;;
18653;SDS011;9456;47.824;16.228;2023-06-14T06:40:18;11.83;;;8.07;;
18653;SDS011;9456;47.824;16.228;2023-06-14T06:42:47;10.03;;;7.20;;
18653;SDS011;9456;47.824;16.228;2023-06-14T06:45:18;8.93;;;6.90;;
18653;SDS011;9456;47.824;16.228;2023-06-14T06:47:47;11.37;;;6.93;;
18653;SDS011;9456;47.824;16.228;2023-06-14T06:50:16;8.50;;;6.97;;
18653;SDS011;9456;47.824;16.228;2023-06-14T06:52:44;7.70;;;6.57;;
18653;SDS011;9456;47.824;16.228;2023-06-14T06:55:13;6.03;;;5.47;;
18653;SDS011;9456;47.824;16.228;2023-06-14T06:57:42;7.87;;;5.53;;
18653;SDS011;9456;47.824;16.228;2023-06-14T07:00:12;8.23;;;6.40;;
18653;SDS011;9456;47.824;16.228;2023-06-14T07:02:41;6.00;;;5.50;;
18653;SDS011;9456;47.824;16.228;2023-06-14T07:05:10;8.17;;;5.90;;
18653;SDS011;9456;47.824;16.228;2023-06-14T07:07:39;5.93;;;5.33;;
18653;SDS011;9456;47.824;16.228;2023-06-14T07:10:08;9.23;;;4.83;;
18653;SDS011;9456;47.824;16.228;2023-06-14T07:12:37;7.67;;;5.13;;
18653;SDS011;9456;47.824;16.228;2023-06-14T07:15:07;7.57;;;5.13;;
18653;SDS011;9456;47.824;16.228;2023-06-14T07:17:37;8.73;;;4.77;;
18653;SDS011;9456;47.824;16.228;2023-06-14T07:20:08;5.27;;;4.60;;
18653;SDS011;9456;47.824;16.228;2023-06-14T07:22:39;5.60;;;4.53;;
18653;SDS011;9456;47.824;16.228;2023-06-14T07:25:09;5.80;;;4.37;;
18653;SDS011;9456;47.824;16.228;2023-06-14T07:27:39;9.13;;;4.60;;
18653;SDS011;9456;47.824;16.228;2023-06-14T07:30:09;5.63;;;4.57;;
18653;SDS011;9456;47.824;16.228;2023-06-14T07:32:39;4.80;;;4.20;;
18653;SDS011;9456;47.824;16.228;2023-06-14T07:35:08;8.93;;;5.60;;
18653;SDS011;9456;47.824;16.228;2023-06-14T07:37:37;9.07;;;4.97;;
18653;SDS011;9456;47.824;16.228;2023-06-14T07:40:07;7.00;;;4.93;;
18653;SDS011;9456;47.824;16.228;2023-06-14T07:42:37;6.57;;;4.70;;
18653;SDS011;9456;47.824;16.228;2023-06-14T07:45:06;6.13;;;5.10;;
18653;SDS011;9456;47.824;16.228;2023-06-14T07:47:36;7.47;;;4.87;;
18653;SDS011;9456;47.824;16.228;2023-06-14T07:50:06;7.30;;;4.83;;
18653;SDS011;9456;47.824;16.228;2023-06-14T07:52:36;7.70;;;5.80;;
18653;SDS011;9456;47.824;16.228;2023-06-14T07:55:06;8.77;;;6.57;;
18653;SDS011;9456;47.824;16.228;2023-06-14T07:57:35;8.80;;;5.33;;
18653;SDS011;9456;47.824;16.228;2023-06-14T08:00:05;8.97;;;7.13;;
18653;SDS011;9456;47.824;16.228;2023-06-14T08:02:35;11.77;;;7.40;;
18653;SDS011;9456;47.824;16.228;2023-06-14T08:05:04;10.93;;;8.20;;
18653;SDS011;9456;47.824;16.228;2023-06-14T08:07:33;10.97;;;7.80;;
18653;SDS011;9456;47.824;16.228;2023-06-14T08:10:03;12.50;;;8.03;;
18653;SDS011;9456;47.824;16.228;2023-06-14T08:12:32;10.00;;;8.57;;
18653;SDS011;9456;47.824;16.228;2023-06-14T08:15:01;11.30;;;8.80;;
18653;SDS011;9456;47.824;16.228;2023-06-14T08:17:30;9.00;;;8.10;;
18653;SDS011;9456;47.824;16.228;2023-06-14T08:19:59;14.43;;;8.63;;
18653;SDS011;9456;47.824;16.228;2023-06-14T08:22:28;15.43;;;8.60;;
18653;SDS011;9456;47.824;16.228;2023-06-14T08:24:57;15.00;;;9.20;;
18653;SDS011;9456;47.824;16.228;2023-06-14T08:27:26;13.00;;;9.23;;
18653;SDS011;9456;47.824;16.228;2023-06-14T08:29:55;12.20;;;8.40;;
18653;SDS011;9456;47.824;16.228;2023-06-14T08:32:24;10.17;;;8.23;;
18653;SDS011;9456;47.824;16.228;2023-06-14T08:34:53;11.17;;;8.30;;
18653;SDS011;9456;47.824;16.228;2023-06-14T08:37:21;7.87;;;7.07;;
18653;SDS011;9456;47.824;16.228;2023-06-14T08:39:51;10.20;;;8.60;;
18653;SDS011;9456;47.824;16.228;2023-06-14T08:42:20;9.70;;;8.43;;
18653;SDS011;9456;47.824;16.228;2023-06-14T08:44:49;10.80;;;8.83;;
18653;SDS011;9456;47.824;16.228;2023-06-14T08:47:18;9.20;;;8.30;;
18653;SDS011;9456;47.824;16.228;2023-06-14T08:49:46;9.67;;;7.90;;
18653;SDS011;9456;47.824;16.228;2023-06-14T08:52:16;7.90;;;6.27;;
18653;SDS011;9456;47.824;16.228;2023-06-14T08:54:45;6.77;;;6.07;;
18653;SDS011;9456;47.824;16.228;2023-06-14T08:57:14;8.10;;;5.03;;
18653;SDS011;9456;47.824;16.228;2023-06-14T08:59:46;6.40;;;4.60;;
18653;SDS011;9456;47.824;16.228;2023-06-14T09:02:14;6.40;;;4.53;;
18653;SDS011;9456;47.824;16.228;2023-06-14T09:04:43;5.50;;;4.00;;
18653;SDS011;9456;47.824;16.228;2023-06-14T09:07:12;4.70;;;4.00;;
18653;SDS011;9456;47.824;16.228;2023-06-14T09:09:41;6.13;;;4.43;;
18653;SDS011;9456;47.824;16.228;2023-06-14T09:12:11;6.57;;;3.77;;
18653;SDS011;9456;47.824;16.228;2023-06-14T09:14:40;5.97;;;3.63;;
18653;SDS011;9456;47.824;16.228;2023-06-14T09:17:09;4.27;;;3.60;;
18653;SDS011;9456;47.824;16.228;2023-06-14T09:19:38;7.70;;;4.00;;
18653;SDS011;9456;47.824;16.228;2023-06-14T09:24:48;4.17;;;3.57;;
18653;SDS011;9456;47.824;16.228;2023-06-14T09:27:17;4.13;;;3.70;;
18653;SDS011;9456;47.824;16.228;2023-06-14T09:29:46;5.00;;;3.87;;
18653;SDS011;9456;47.824;16.228;2023-06-14T09:32:15;8.47;;;3.90;;
18653;SDS011;9456;47.824;16.228;2023-06-14T09:34:45;4.30;;;3.83;;
18653;SDS011;9456;47.824;16.228;2023-06-14T09:37:14;4.37;;;3.97;;
18653;SDS011;9456;47.824;16.228;2023-06-14T09:39:52;3.73;;;3.43;;
18653;SDS011;9456;47.824;16.228;2023-06-14T09:42:21;4.20;;;3.20;;
18653;SDS011;9456;47.824;16.228;2023-06-14T09:44:50;3.87;;;3.00;;
18653;SDS011;9456;47.824;16.228;2023-06-14T09:47:19;3.67;;;3.37;;
18653;SDS011;9456;47.824;16.228;2023-06-14T09:49:49;3.83;;;3.27;;
18653;SDS011;9456;47.824;16.228;2023-06-14T09:52:18;4.07;;;3.60;;
18653;SDS011;9456;47.824;16.228;2023-06-14T09:54:46;3.40;;;3.00;;
18653;SDS011;9456;47.824;16.228;2023-06-14T09:57:17;3.93;;;3.20;;
18653;SDS011;9456;47.824;16.228;2023-06-14T09:59:46;3.57;;;3.27;;
18653;SDS011;9456;47.824;16.228;2023-06-14T10:02:17;3.83;;;3.27;;
18653;SDS011;9456;47.824;16.228;2023-06-14T10:04:49;5.37;;;2.90;;
18653;SDS011;9456;47.824;16.228;2023-06-14T10:07:17;4.93;;;3.30;;
18653;SDS011;9456;47.824;16.228;2023-06-14T10:09:46;9.37;;;3.40;;
18653;SDS011;9456;47.824;16.228;2023-06-14T10:12:17;3.70;;;2.97;;
18653;SDS011;9456;47.824;16.228;2023-06-14T10:14:48;3.77;;;3.10;;
18653;SDS011;9456;47.824;16.228;2023-06-14T10:17:20;6.37;;;3.20;;
18653;SDS011;9456;47.824;16.228;2023-06-14T10:19:50;4.57;;;3.80;;
18653;SDS011;9456;47.824;16.228;2023-06-14T10:22:19;3.73;;;3.10;;
18653;SDS011;9456;47.824;16.228;2023-06-14T10:24:55;5.63;;;3.00;;
18653;SDS011;9456;47.824;16.228;2023-06-14T10:27:23;6.27;;;3.03;;
18653;SDS011;9456;47.824;16.228;2023-06-14T10:30:07;3.70;;;2.60;;
18653;SDS011;9456;47.824;16.228;2023-06-14T10:32:37;3.93;;;3.20;;
18653;SDS011;9456;47.824;16.228;2023-06-14T10:35:21;4.30;;;3.23;;
18653;SDS011;9456;47.824;16.228;2023-06-14T10:37:50;9.33;;;3.50;;
18653;SDS011;9456;47.824;16.228;2023-06-14T10:40:30;4.87;;;3.37;;
18653;SDS011;9456;47.824;16.228;2023-06-14T10:43:00;5.93;;;4.00;;
18653;SDS011;9456;47.824;16.228;2023-06-14T10:45:29;4.67;;;3.80;;
18653;SDS011;9456;47.824;16.228;2023-06-14T10:47:58;8.77;;;3.50;;
18653;SDS011;9456;47.824;16.228;2023-06-14T10:50:30;4.83;;;4.07;;
18653;SDS011;9456;47.824;16.228;2023-06-14T10:52:59;4.57;;;3.70;;
18653;SDS011;9456;47.824;16.228;2023-06-14T10:55:28;4.97;;;3.60;;
18653;SDS011;9456;47.824;16.228;2023-06-14T10:57:57;7.30;;;4.40;;
18653;SDS011;9456;47.824;16.228;2023-06-14T11:00:27;4.53;;;3.60;;
18653;SDS011;9456;47.824;16.228;2023-06-14T11:06:08;6.57;;;3.97;;
18653;SDS011;9456;47.824;16.228;2023-06-14T11:08:40;7.77;;;4.07;;
18653;SDS011;9456;47.824;16.228;2023-06-14T11:11:29;6.77;;;3.97;;
18653;SDS011;9456;47.824;16.228;2023-06-14T11:13:58;4.80;;;4.07;;
18653;SDS011;9456;47.824;16.228;2023-06-14T11:16:27;6.13;;;4.13;;
18653;SDS011;9456;47.824;16.228;2023-06-14T11:18:56;4.50;;;3.80;;
18653;SDS011;9456;47.824;16.228;2023-06-14T11:21:24;5.17;;;3.93;;
18653;SDS011;9456;47.824;16.228;2023-06-14T11:23:54;7.23;;;4.03;;
18653;SDS011;9456;47.824;16.228;2023-06-14T11:26:27;6.37;;;4.20;;
18653;SDS011;9456;47.824;16.228;2023-06-14T11:28:56;3.87;;;3.23;;
18653;SDS011;9456;47.824;16.228;2023-06-14T11:31:25;4.77;;;3.90;;
18653;SDS011;9456;47.824;16.228;2023-06-14T11:33:54;5.63;;;3.40;;
18653;SDS011;9456;47.824;16.228;2023-06-14T11:36:23;3.50;;;3.20;;
18653;SDS011;9456;47.824;16.228;2023-06-14T11:38:58;4.37;;;3.23;;
18653;SDS011;9456;47.824;16.228;2023-06-14T11:41:33;4.40;;;2.90;;
18653;SDS011;9456;47.824;16.228;2023-06-14T11:44:03;3.83;;;3.43;;
18653;SDS011;9456;47.824;16.228;2023-06-14T11:46:32;4.30;;;3.50;;
18653;SDS011;9456;47.824;16.228;2023-06-14T11:49:01;3.70;;;3.33;;
18653;SDS011;9456;47.824;16.228;2023-06-14T11:51:30;4.50;;;3.50;;
18653;SDS011;9456;47.824;16.228;2023-06-14T11:53:59;4.93;;;3.40;;
18653;SDS011;9456;47.824;16.228;2023-06-14T11:56:28;10.77;;;3.93;;
18653;SDS011;9456;47.824;16.228;2023-06-14T11:58:57;5.03;;;3.70;;
18653;SDS011;9456;47.824;16.228;2023-06-14T12:01:26;4.57;;;3.60;;
18653;SDS011;9456;47.824;16.228;2023-06-14T12:03:55;6.27;;;4.03;;
18653;SDS011;9456;47.824;16.228;2023-06-14T12:06:28;4.20;;;3.43;;
18653;SDS011;9456;47.824;16.228;2023-06-14T12:08:57;4.20;;;3.50;;
18653;SDS011;9456;47.824;16.228;2023-06-14T12:11:32;4.53;;;3.70;;
18653;SDS011;9456;47.824;16.228;2023-06-14T12:13:59;3.90;;;3.37;;
18653;SDS011;9456;47.824;16.228;2023-06-14T12:16:34;7.37;;;3.83;;
18653;SDS011;9456;47.824;16.228;2023-06-14T12:19:01;10.63;;;3.30;;
18653;SDS011;9456;47.824;16.228;2023-06-14T12:21:37;3.37;;;3.07;;
18653;SDS011;9456;47.824;16.228;2023-06-14T12:24:07;3.43;;;3.13;;
18653;SDS011;9456;47.824;16.228;2023-06-14T12:26:38;4.70;;;3.30;;
18653;SDS011;9456;47.824;16.228;2023-06-14T12:31:48;3.47;;;3.17;;
18653;SDS011;9456;47.824;16.228;2023-06-14T12:34:17;6.83;;;3.60;;
18653;SDS011;9456;47.824;16.228;2023-06-14T12:36:46;4.60;;;3.50;;
18653;SDS011;9456;47.824;16.228;2023-06-14T12:39:14;5.07;;;3.70;;
18653;SDS011;9456;47.824;16.228;2023-06-14T12:41:43;4.70;;;3.30;;
18653;SDS011;9456;47.824;16.228;2023-06-14T12:44:12;3.90;;;3.60;;
18653;SDS011;9456;47.824;16.228;2023-06-14T12:46:41;4.10;;;3.17;;
18653;SDS011;9456;47.824;16.228;2023-06-14T12:49:10;5.97;;;3.30;;
18653;SDS011;9456;47.824;16.228;2023-06-14T12:51:39;5.37;;;3.43;;
18653;SDS011;9456;47.824;16.228;2023-06-14T12:54:08;5.90;;;3.50;;
18653;SDS011;9456;47.824;16.228;2023-06-14T12:56:37;3.83;;;3.53;;
18653;SDS011;9456;47.824;16.228;2023-06-14T12:59:06;13.23;;;4.13;;
18653;SDS011;9456;47.824;16.228;2023-06-14T13:01:35;3.87;;;3.57;;
18653;SDS011;9456;47.824;16.228;2023-06-14T13:04:04;5.10;;;3.63;;
18653;SDS011;9456;47.824;16.228;2023-06-14T13:06:33;6.27;;;3.50;;
18653;SDS011;9456;47.824;16.228;2023-06-14T13:09:02;5.17;;;3.80;;
18653;SDS011;9456;47.824;16.228;2023-06-14T13:11:31;4.93;;;3.40;;
18653;SDS011;9456;47.824;16.228;2023-06-14T13:14:00;3.60;;;3.30;;
18653;SDS011;9456;47.824;16.228;2023-06-14T13:16:29;5.00;;;3.47;;
18653;SDS011;9456;47.824;16.228;2023-06-14T13:18:58;3.93;;;3.40;;
18653;SDS011;9456;47.824;16.228;2023-06-14T13:21:27;5.17;;;3.37;;
18653;SDS011;9456;47.824;16.228;2023-06-14T13:23:56;5.00;;;3.27;;
18653;SDS011;9456;47.824;16.228;2023-06-14T13:26:25;4.47;;;3.33;;
18653;SDS011;9456;47.824;16.228;2023-06-14T13:28:54;3.70;;;3.40;;
18653;SDS011;9456;47.824;16.228;2023-06-14T13:31:23;5.77;;;3.43;;
18653;SDS011;9456;47.824;16.228;2023-06-14T13:33:52;7.57;;;3.33;;
18653;SDS011;9456;47.824;16.228;2023-06-14T13:36:21;3.83;;;3.40;;
18653;SDS011;9456;47.824;16.228;2023-06-14T13:38:50;9.70;;;3.43;;
18653;SDS011;9456;47.824;16.228;2023-06-14T13:41:18;4.53;;;3.97;;
18653;SDS011;9456;47.824;16.228;2023-06-14T13:43:47;3.70;;;3.30;;
18653;SDS011;9456;47.824;16.228;2023-06-14T13:46:16;3.30;;;3.00;;
18653;SDS011;9456;47.824;16.228;2023-06-14T13:48:45;7.20;;;3.77;;
18653;SDS011;9456;47.824;16.228;2023-06-14T13:51:14;5.37;;;3.53;;
18653;SDS011;9456;47.824;16.228;2023-06-14T13:53:45;4.90;;;3.60;;
18653;SDS011;9456;47.824;16.228;2023-06-14T13:56:12;6.20;;;3.27;;
18653;SDS011;9456;47.824;16.228;2023-06-14T13:58:41;6.13;;;3.67;;
18653;SDS011;9456;47.824;16.228;2023-06-14T14:01:10;6.33;;;3.83;;
18653;SDS011;9456;47.824;16.228;2023-06-14T14:03:39;3.83;;;3.13;;
18653;SDS011;9456;47.824;16.228;2023-06-14T14:06:08;3.37;;;3.13;;
18653;SDS011;9456;47.824;16.228;2023-06-14T14:08:37;3.73;;;3.43;;
18653;SDS011;9456;47.824;16.228;2023-06-14T14:11:06;5.13;;;3.30;;
18653;SDS011;9456;47.824;16.228;2023-06-14T14:13:35;4.13;;;3.33;;
18653;SDS011;9456;47.824;16.228;2023-06-14T14:16:05;6.17;;;3.60;;
18653;SDS011;9456;47.824;16.228;2023-06-14T14:18:34;5.20;;;3.47;;
18653;SDS011;9456;47.824;16.228;2023-06-14T14:21:03;4.40;;;3.03;;
18653;SDS011;9456;47.824;16.228;2023-06-14T14:23:32;5.63;;;3.37;;
18653;SDS011;9456;47.824;16.228;2023-06-14T14:26:01;6.60;;;3.73;;
18653;SDS011;9456;47.824;16.228;2023-06-14T14:28:30;4.90;;;3.07;;
18653;SDS011;9456;47.824;16.228;2023-06-14T14:30:59;4.40;;;2.97;;
18653;SDS011;9456;47.824;16.228;2023-06-14T14:36:11;4.30;;;3.07;;
18653;SDS011;9456;47.824;16.228;2023-06-14T14:38:40;3.80;;;2.93;;
18653;SDS011;9456;47.824;16.228;2023-06-14T14:41:09;6.17;;;3.80;;
18653;SDS011;9456;47.824;16.228;2023-06-14T14:43:38;6.10;;;3.30;;
18653;SDS011;9456;47.824;16.228;2023-06-14T14:46:07;5.70;;;3.10;;
18653;SDS011;9456;47.824;16.228;2023-06-14T14:48:36;4.73;;;3.27;;
18653;SDS011;9456;47.824;16.228;2023-06-14T14:51:05;4.47;;;3.10;;
18653;SDS011;9456;47.824;16.228;2023-06-14T14:53:34;3.40;;;3.10;;
18653;SDS011;9456;47.824;16.228;2023-06-14T14:56:03;3.33;;;3.03;;
18653;SDS011;9456;47.824;16.228;2023-06-14T14:58:32;4.47;;;3.23;;
18653;SDS011;9456;47.824;16.228;2023-06-14T15:01:01;3.50;;;3.20;;
18653;SDS011;9456;47.824;16.228;2023-06-14T15:03:30;3.40;;;3.10;;
18653;SDS011;9456;47.824;16.228;2023-06-14T15:05:59;3.20;;;2.90;;
18653;SDS011;9456;47.824;16.228;2023-06-14T15:08:28;4.10;;;3.70;;